createdAt,value
2019-05-06T00:00:14.022Z,100776.77
2019-05-06T00:02:43.628Z,100776.34
2019-05-06T00:05:14.286Z,100779.84
2019-05-06T00:07:45.589Z,100782.98
2019-05-06T00:10:25.964Z,100783.34
2019-05-06T00:12:55.225Z,100774.02
2019-05-06T00:15:24.044Z,100775.72
2019-05-06T00:17:53.914Z,100779.20
2019-05-06T00:20:24.314Z,100778.36
2019-05-06T00:22:55.661Z,100775.44
2019-05-06T00:25:34.726Z,100776.03
2019-05-06T00:28:21.760Z,100774.02
2019-05-06T00:30:54.465Z,100781.28
2019-05-06T00:33:24.263Z,100784.16
2019-05-06T00:35:53.865Z,100782.28
2019-05-06T00:38:24.495Z,100775.61
2019-05-06T00:40:56.143Z,100784.45
2019-05-06T00:43:24.921Z,100779.02
2019-05-06T00:45:53.775Z,100783.02
2019-05-06T00:48:24.298Z,100774.88
2019-05-06T00:50:53.568Z,100779.96
2019-05-06T00:53:24.560Z,100773.77
2019-05-06T00:55:53.777Z,100775.11
2019-05-06T00:58:23.857Z,100769.78
2019-05-06T01:00:53.870Z,100774.58
2019-05-06T01:03:23.795Z,100777.94
2019-05-06T01:05:54.222Z,100777.09
2019-05-06T01:08:23.937Z,100785.21
2019-05-06T01:10:54.474Z,100781.91
2019-05-06T01:13:38.036Z,100781.85
2019-05-06T01:16:08.342Z,100784.86
2019-05-06T01:18:37.373Z,100783.33
2019-05-06T01:21:14.351Z,100784.33
2019-05-06T01:23:44.323Z,100784.20
2019-05-06T01:26:15.428Z,100779.99
2019-05-06T01:28:45.117Z,100779.05
2019-05-06T01:31:14.191Z,100784.31
2019-05-06T01:33:45.058Z,100784.88
2019-05-06T01:36:14.107Z,100785.53
2019-05-06T01:39:14.994Z,100787.20
2019-05-06T01:41:49.755Z,100787.59
2019-05-06T01:44:18.915Z,100787.16
2019-05-06T01:46:47.585Z,100783.02
2019-05-06T01:49:16.260Z,100786.51
2019-05-06T01:51:45.031Z,100789.44
2019-05-06T01:54:14.266Z,100793.09
2019-05-06T01:56:44.410Z,100791.93
2019-05-06T01:59:14.085Z,100797.00
2019-05-06T02:01:54.974Z,100795.64
2019-05-06T02:04:14.009Z,100794.98
2019-05-06T02:06:43.765Z,100805.30
2019-05-06T02:09:17.960Z,100802.48
2019-05-06T02:11:48.114Z,100808.22
2019-05-06T02:14:17.111Z,100808.83
2019-05-06T02:16:45.810Z,100809.56
2019-05-06T02:19:14.913Z,100805.94
2019-05-06T02:22:13.686Z,100803.88
2019-05-06T02:24:46.474Z,100806.09
2019-05-06T02:27:15.826Z,100802.02
2019-05-06T02:29:50.513Z,100803.24
2019-05-06T02:32:31.469Z,100806.39
2019-05-06T02:35:06.139Z,100801.45
2019-05-06T02:37:37.542Z,100800.95
2019-05-06T02:40:17.187Z,100804.95
2019-05-06T02:42:45.893Z,100800.78
2019-05-06T02:45:14.699Z,100795.18
2019-05-06T02:47:53.789Z,100798.03
2019-05-06T02:50:24.473Z,100794.44
2019-05-06T02:52:53.858Z,100800.64
2019-05-06T02:55:23.585Z,100794.48
2019-05-06T02:57:53.651Z,100796.55
2019-05-06T03:00:23.904Z,100793.00
2019-05-06T03:02:54.100Z,100790.80
2019-05-06T03:05:23.843Z,100788.20
2019-05-06T03:07:57.043Z,100791.30
2019-05-06T03:10:24.628Z,100794.45
2019-05-06T03:12:54.057Z,100795.97
2019-05-06T03:15:23.902Z,100788.05
2019-05-06T03:17:55.308Z,100789.26
2019-05-06T03:20:47.812Z,100783.02
2019-05-06T03:23:18.073Z,100791.74
2019-05-06T03:25:46.761Z,100789.50
2019-05-06T03:28:15.461Z,100785.13
2019-05-06T03:30:45.982Z,100780.08
2019-05-06T03:33:37.678Z,100782.95
2019-05-06T03:36:00.557Z,100793.49
2019-05-06T03:38:15.418Z,100790.10
2019-05-06T03:40:45.885Z,100784.02
2019-05-06T03:43:15.977Z,100787.27
2019-05-06T03:45:57.491Z,100776.31
2019-05-06T03:48:33.079Z,100782.04
2019-05-06T03:51:00.251Z,100783.77
2019-05-06T03:53:33.343Z,100781.62
2019-05-06T03:56:03.370Z,100776.56
2019-05-06T03:58:36.577Z,100781.61
2019-05-06T04:01:05.336Z,100778.19
2019-05-06T04:03:46.864Z,100782.54
2019-05-06T04:06:05.384Z,100777.46
2019-05-06T04:08:35.383Z,100780.11
2019-05-06T04:11:05.009Z,100781.27
2019-05-06T04:13:35.537Z,100781.27
2019-05-06T04:16:23.212Z,100774.86
2019-05-06T04:18:59.200Z,100777.34
2019-05-06T04:21:43.661Z,100779.51
2019-05-06T04:24:22.736Z,100779.98
2019-05-06T04:27:05.597Z,100778.84
2019-05-06T04:29:35.578Z,100777.87
2019-05-06T04:32:05.185Z,100776.22
2019-05-06T04:34:34.002Z,100778.70
2019-05-06T04:37:03.484Z,100775.73
2019-05-06T04:39:33.176Z,100782.16
2019-05-06T04:42:03.453Z,100781.32
2019-05-06T04:44:33.086Z,100780.52
2019-05-06T04:47:05.275Z,100785.93
2019-05-06T04:49:33.346Z,100788.48
2019-05-06T04:52:03.675Z,100785.68
2019-05-06T04:54:33.692Z,100794.55
2019-05-06T04:57:05.043Z,100793.06
2019-05-06T04:59:34.302Z,100804.30
2019-05-06T05:02:03.204Z,100799.17
2019-05-06T05:04:36.520Z,100799.37
2019-05-06T05:07:03.456Z,100795.34
2019-05-06T05:09:32.701Z,100802.14
2019-05-06T05:12:07.631Z,100800.56
2019-05-06T05:14:45.890Z,100795.33
2019-05-06T05:17:29.151Z,100793.48
2019-05-06T05:19:57.960Z,100791.14
2019-05-06T05:22:26.705Z,100787.03
2019-05-06T05:24:56.021Z,100788.00
2019-05-06T05:27:24.788Z,100795.38
2019-05-06T05:29:53.557Z,100794.45
2019-05-06T05:32:22.618Z,100795.58
2019-05-06T05:34:52.251Z,100796.80
2019-05-06T05:37:22.837Z,100800.72
2019-05-06T05:39:52.338Z,100800.00
2019-05-06T05:42:42.384Z,100810.28
2019-05-06T05:45:12.849Z,100800.05
2019-05-06T05:47:42.544Z,100806.59
2019-05-06T05:50:17.710Z,100804.53
2019-05-06T05:52:46.718Z,100800.05
2019-05-06T05:55:15.303Z,100798.27
2019-05-06T05:57:46.929Z,100810.74
2019-05-06T06:00:22.515Z,100806.98
2019-05-06T06:02:54.494Z,100808.31
2019-05-06T06:05:24.387Z,100805.99
2019-05-06T06:07:53.152Z,100803.92
2019-05-06T06:10:28.102Z,100804.25
2019-05-06T06:13:03.133Z,100812.52
2019-05-06T06:16:03.798Z,100805.58
2019-05-06T06:18:45.969Z,100792.18
2019-05-06T06:21:34.316Z,100798.28
2019-05-06T06:24:13.109Z,100796.60
2019-05-06T06:26:42.933Z,100798.00
2019-05-06T06:29:12.652Z,100793.39
2019-05-06T06:31:49.868Z,100796.49
2019-05-06T06:34:23.799Z,100808.19
2019-05-06T06:37:02.657Z,100797.91
2019-05-06T06:39:36.887Z,100807.30
2019-05-06T06:42:05.832Z,100802.58
2019-05-06T06:44:35.605Z,100805.09
2019-05-06T06:47:04.432Z,100795.33
2019-05-06T06:49:33.408Z,100790.80
2019-05-06T06:52:03.002Z,100792.69
2019-05-06T06:54:32.449Z,100792.02
2019-05-06T06:57:35.405Z,100781.86
2019-05-06T07:00:26.796Z,100780.81
2019-05-06T07:03:02.588Z,100782.87
2019-05-06T07:05:53.330Z,100790.88
2019-05-06T07:08:34.048Z,100809.27
2019-05-06T07:10:52.639Z,100795.58
2019-05-06T07:13:23.218Z,100795.52
2019-05-06T07:15:52.138Z,100794.20
2019-05-06T07:18:22.543Z,100789.41
2019-05-06T07:21:05.606Z,100816.73
2019-05-06T07:23:35.118Z,100795.96
2019-05-06T07:26:03.853Z,100791.59
2019-05-06T07:28:32.803Z,100790.83
2019-05-06T07:31:17.335Z,100794.14
2019-05-06T07:33:33.453Z,100797.95
2019-05-06T07:36:02.449Z,100794.94
2019-05-06T07:38:32.641Z,100794.24
2019-05-06T07:41:14.421Z,100791.95
2019-05-06T07:43:56.206Z,100804.41
2019-05-06T07:46:37.978Z,100795.61
2019-05-06T07:49:06.679Z,100797.19
2019-05-06T07:51:35.342Z,100798.20
2019-05-06T07:54:04.068Z,100794.83
2019-05-06T07:56:32.835Z,100800.44
2019-05-06T07:59:12.576Z,100803.50
2019-05-06T08:01:43.837Z,100806.41
2019-05-06T08:04:12.230Z,100807.27
2019-05-06T08:06:42.625Z,100795.25
2019-05-06T08:09:13.007Z,100794.95
2019-05-06T08:11:42.341Z,100795.33
2019-05-06T08:14:13.076Z,100787.90
2019-05-06T08:17:04.266Z,100789.33
2019-05-06T08:19:33.730Z,100780.09
2019-05-06T08:22:05.063Z,100789.13
2019-05-06T08:24:33.719Z,100777.91
2019-05-06T08:27:02.925Z,100783.61
2019-05-06T08:29:33.088Z,100777.36
2019-05-06T08:32:02.982Z,100772.50
2019-05-06T08:34:33.947Z,100774.49
2019-05-06T08:37:12.074Z,100772.16
2019-05-06T08:39:43.908Z,100782.22
2019-05-06T08:42:13.524Z,100779.61
2019-05-06T08:44:42.712Z,100774.30
2019-05-06T08:47:13.289Z,100773.83
2019-05-06T08:50:03.533Z,100777.45
2019-05-06T08:52:52.296Z,100764.38
2019-05-06T08:55:28.300Z,100775.38
2019-05-06T08:57:57.026Z,100764.51
2019-05-06T09:00:25.689Z,100769.13
2019-05-06T09:02:54.354Z,100771.25
2019-05-06T09:05:23.316Z,100765.00
2019-05-06T09:07:52.377Z,100763.16
2019-05-06T09:10:22.718Z,100768.25
2019-05-06T09:12:52.527Z,100770.44
2019-05-06T09:15:22.009Z,100773.00
2019-05-06T09:17:52.624Z,100780.41
2019-05-06T09:20:23.262Z,100768.38
2019-05-06T09:22:52.189Z,100766.47
2019-05-06T09:25:23.011Z,100766.75
2019-05-06T09:28:02.586Z,100760.30
2019-05-06T09:30:39.828Z,100770.50
2019-05-06T09:33:08.945Z,100764.25
2019-05-06T09:35:37.623Z,100764.77
2019-05-06T09:38:06.357Z,100761.45
2019-05-06T09:40:35.041Z,100753.50
2019-05-06T09:43:04.765Z,100753.04
2019-05-06T09:45:33.598Z,100756.79
2019-05-06T09:48:09.178Z,100760.92
2019-05-06T09:50:45.384Z,100761.05
2019-05-06T09:53:16.306Z,100754.88
2019-05-06T09:56:04.084Z,100762.59
2019-05-06T09:58:33.720Z,100757.62
2019-05-06T10:01:03.441Z,100755.95
2019-05-06T10:03:32.342Z,100755.06
2019-05-06T10:06:02.676Z,100749.42
2019-05-06T10:08:32.525Z,100745.87
2019-05-06T10:11:03.126Z,100750.84
2019-05-06T10:13:32.725Z,100742.06
2019-05-06T10:16:02.964Z,100742.67
2019-05-06T10:18:32.009Z,100748.21
2019-05-06T10:21:00.726Z,100736.39
2019-05-06T10:23:29.385Z,100742.29
2019-05-06T10:25:58.144Z,100744.05
2019-05-06T10:28:33.699Z,100731.53
2019-05-06T10:31:04.712Z,100741.62
2019-05-06T10:33:34.033Z,100737.00
2019-05-06T10:36:03.773Z,100735.30
2019-05-06T10:38:49.896Z,100738.50
2019-05-06T10:41:22.569Z,100736.94
2019-05-06T10:44:03.039Z,100726.23
2019-05-06T10:46:31.755Z,100722.38
2019-05-06T10:49:02.445Z,100729.07
2019-05-06T10:51:39.041Z,100733.94
2019-05-06T10:54:07.735Z,100723.73
2019-05-06T10:56:57.389Z,100726.77
2019-05-06T10:59:25.552Z,100721.03
2019-05-06T11:01:56.811Z,100717.51
2019-05-06T11:04:25.475Z,100708.67
2019-05-06T11:06:54.232Z,100705.60
2019-05-06T11:09:22.895Z,100696.19
2019-05-06T11:11:51.554Z,100695.71
2019-05-06T11:14:22.714Z,100707.27
2019-05-06T11:16:50.640Z,100714.09
2019-05-06T11:19:19.295Z,100706.94
2019-05-06T11:21:47.989Z,100705.97
2019-05-06T11:24:16.753Z,100696.84
2019-05-06T11:26:45.414Z,100703.81
2019-05-06T11:29:20.106Z,100697.38
2019-05-06T11:32:14.879Z,100693.12
2019-05-06T11:35:05.380Z,100692.20
2019-05-06T11:38:08.556Z,100703.41
2019-05-06T11:40:37.224Z,100702.19
2019-05-06T11:43:05.915Z,100710.34
2019-05-06T11:45:34.637Z,100687.90
2019-05-06T11:48:03.368Z,100697.91
2019-05-06T11:50:33.467Z,100701.67
2019-05-06T11:53:02.568Z,100692.67
2019-05-06T11:55:38.036Z,100687.31
2019-05-06T11:58:02.537Z,100680.41
2019-05-06T12:00:36.410Z,100681.15
2019-05-06T12:03:05.444Z,100679.15
2019-05-06T12:05:34.122Z,100669.05
2019-05-06T12:08:08.028Z,100667.63
2019-05-06T12:10:33.263Z,100671.78
2019-05-06T12:13:02.840Z,100670.50
2019-05-06T12:15:31.573Z,100672.53
2019-05-06T12:18:00.238Z,100671.22
2019-05-06T12:20:28.922Z,100679.23
2019-05-06T12:22:57.587Z,100674.56
2019-05-06T12:25:26.270Z,100677.53
2019-05-06T12:27:54.948Z,100685.69
2019-05-06T12:30:24.667Z,100681.80
2019-05-06T12:33:13.059Z,100680.30
2019-05-06T12:35:45.365Z,100675.02
2019-05-06T12:38:29.655Z,100670.56
2019-05-06T12:40:49.025Z,100672.63
2019-05-06T12:43:39.847Z,100677.75
2019-05-06T12:46:18.643Z,100668.17
2019-05-06T12:48:47.338Z,100669.89
2019-05-06T12:51:16.092Z,100659.80
2019-05-06T12:53:44.827Z,100675.63
2019-05-06T12:56:13.561Z,100669.37
2019-05-06T12:58:44.314Z,100667.36
2019-05-06T13:01:13.654Z,100666.00
2019-05-06T13:03:43.220Z,100668.97
2019-05-06T13:06:12.960Z,100661.03
2019-05-06T13:08:56.821Z,100656.15
2019-05-06T13:11:13.291Z,100677.02
2019-05-06T13:13:56.596Z,100671.21
2019-05-06T13:16:12.709Z,100671.55
2019-05-06T13:18:46.910Z,100676.09
2019-05-06T13:21:12.740Z,100674.17
2019-05-06T13:23:48.479Z,100680.63
2019-05-06T13:26:17.262Z,100679.68
2019-05-06T13:28:50.309Z,100690.18
2019-05-06T13:31:21.842Z,100684.31
2019-05-06T13:33:54.878Z,100683.55
2019-05-06T13:36:24.231Z,100687.14
2019-05-06T13:39:09.066Z,100684.05
2019-05-06T13:41:23.453Z,100677.16
2019-05-06T13:44:02.615Z,100669.08
2019-05-06T13:46:33.432Z,100666.66
2019-05-06T13:49:22.662Z,100667.03
2019-05-06T13:52:07.777Z,100653.59
2019-05-06T13:54:36.832Z,100666.70
2019-05-06T13:57:05.617Z,100655.94
2019-05-06T13:59:35.197Z,100664.95
2019-05-06T14:02:22.729Z,100652.86
2019-05-06T14:04:52.726Z,100653.97
2019-05-06T14:07:24.361Z,100648.14
2019-05-06T14:09:53.204Z,100650.89
2019-05-06T14:12:22.241Z,100643.84
2019-05-06T14:14:52.686Z,100641.39
2019-05-06T14:17:22.374Z,100645.88
2019-05-06T14:19:53.406Z,100638.97
2019-05-06T14:22:23.186Z,100632.28
2019-05-06T14:25:01.672Z,100633.47
2019-05-06T14:27:32.285Z,100625.95
2019-05-06T14:30:10.825Z,100628.02
2019-05-06T14:32:39.514Z,100624.05
2019-05-06T14:35:08.268Z,100619.28
2019-05-06T14:37:36.924Z,100609.87
2019-05-06T14:40:07.454Z,100613.41
2019-05-06T14:42:36.116Z,100604.84
2019-05-06T14:45:05.181Z,100608.11
2019-05-06T14:47:36.566Z,100607.33
2019-05-06T14:50:06.335Z,100610.02
2019-05-06T14:52:34.988Z,100619.33
2019-05-06T14:55:22.571Z,100622.42
2019-05-06T14:57:53.514Z,100627.05
2019-05-06T15:00:23.066Z,100629.86
2019-05-06T15:02:53.327Z,100613.44
2019-05-06T15:05:22.736Z,100628.10
2019-05-06T15:07:52.847Z,100630.25
2019-05-06T15:10:23.958Z,100630.13
2019-05-06T15:12:53.453Z,100633.32
2019-05-06T15:15:22.919Z,100627.34
2019-05-06T15:17:53.270Z,100630.90
2019-05-06T15:20:22.678Z,100635.73
2019-05-06T15:22:52.955Z,100627.74
2019-05-06T15:25:22.269Z,100633.23
2019-05-06T15:27:52.959Z,100631.59
2019-05-06T15:30:28.566Z,100630.97
2019-05-06T15:32:57.239Z,100632.64
2019-05-06T15:35:44.987Z,100635.28
2019-05-06T15:38:22.052Z,100640.72
2019-05-06T15:40:52.422Z,100634.63
2019-05-06T15:43:22.023Z,100634.70
2019-05-06T15:45:52.582Z,100630.55
2019-05-06T15:48:22.196Z,100634.19
2019-05-06T15:50:53.050Z,100626.77
2019-05-06T15:53:22.451Z,100629.38
2019-05-06T15:55:53.283Z,100628.92
2019-05-06T15:58:22.834Z,100626.75
2019-05-06T16:00:53.185Z,100631.41
2019-05-06T16:03:22.657Z,100626.15
2019-05-06T16:05:52.843Z,100629.92
2019-05-06T16:08:24.435Z,100628.13
2019-05-06T16:10:58.438Z,100632.27
2019-05-06T16:13:23.098Z,100630.63
2019-05-06T16:15:53.196Z,100632.72
2019-05-06T16:18:23.429Z,100631.08
2019-05-06T16:20:52.321Z,100628.70
2019-05-06T16:23:27.027Z,100636.05
2019-05-06T16:25:55.796Z,100630.06
2019-05-06T16:28:24.477Z,100621.84
2019-05-06T16:30:53.633Z,100622.88
2019-05-06T16:33:22.410Z,100627.98
2019-05-06T16:35:52.202Z,100625.31
2019-05-06T16:38:22.994Z,100626.73
2019-05-06T16:40:57.709Z,100615.91
2019-05-06T16:43:22.233Z,100626.48
2019-05-06T16:45:53.213Z,100626.48
2019-05-06T16:48:22.538Z,100627.90
2019-05-06T16:50:51.457Z,100626.19
2019-05-06T16:53:20.123Z,100618.72
2019-05-06T16:56:09.771Z,100620.28
2019-05-06T16:58:45.123Z,100622.79
2019-05-06T17:01:14.917Z,100617.84
2019-05-06T17:03:56.328Z,100624.87
2019-05-06T17:06:27.952Z,100631.58
2019-05-06T17:08:56.615Z,100625.06
2019-05-06T17:11:30.596Z,100622.98
2019-05-06T17:13:55.737Z,100620.55
2019-05-06T17:16:24.409Z,100622.88
2019-05-06T17:18:56.495Z,100624.80
2019-05-06T17:21:23.492Z,100627.06
2019-05-06T17:23:52.363Z,100624.98
2019-05-06T17:26:22.521Z,100623.87
2019-05-06T17:29:02.817Z,100631.40
2019-05-06T17:31:44.913Z,100637.41
2019-05-06T17:34:16.427Z,100657.59
2019-05-06T17:36:45.306Z,100663.16
2019-05-06T17:39:13.998Z,100669.02
2019-05-06T17:41:48.631Z,100675.69
2019-05-06T17:44:13.318Z,100675.06
2019-05-06T17:46:54.883Z,100663.34
2019-05-06T17:49:25.653Z,100669.66
2019-05-06T17:52:03.076Z,100668.33
2019-05-06T17:54:32.467Z,100678.55
2019-05-06T17:57:03.800Z,100687.41
2019-05-06T17:59:33.754Z,100689.02
2019-05-06T18:02:04.693Z,100690.05
2019-05-06T18:04:34.404Z,100698.38
2019-05-06T18:07:03.224Z,100705.33
2019-05-06T18:09:33.125Z,100717.86
2019-05-06T18:12:03.170Z,100700.48
2019-05-06T18:14:33.125Z,100706.17
2019-05-06T18:17:03.645Z,100704.73
2019-05-06T18:19:33.545Z,100702.38
2019-05-06T18:22:03.858Z,100697.64
2019-05-06T18:24:33.266Z,100693.69
2019-05-06T18:27:02.795Z,100699.42
2019-05-06T18:29:33.428Z,100694.52
2019-05-06T18:32:03.717Z,100687.08
2019-05-06T18:34:33.158Z,100686.86
2019-05-06T18:37:03.173Z,100684.44
2019-05-06T18:39:33.718Z,100679.80
2019-05-06T18:42:16.095Z,100685.21
2019-05-06T18:44:33.458Z,100684.56
2019-05-06T18:47:02.846Z,100688.53
2019-05-06T18:49:33.731Z,100682.50
2019-05-06T18:52:02.223Z,100690.63
2019-05-06T18:54:33.620Z,100692.94
2019-05-06T18:57:04.297Z,100692.14
2019-05-06T18:59:32.953Z,100691.42
2019-05-06T19:02:02.336Z,100696.71
2019-05-06T19:04:37.400Z,100690.23
2019-05-06T19:07:14.565Z,100696.34
2019-05-06T19:09:42.662Z,100691.38
2019-05-06T19:12:12.842Z,100699.98
2019-05-06T19:14:43.283Z,100698.73
2019-05-06T19:17:13.143Z,100698.63
2019-05-06T19:19:42.627Z,100698.89
2019-05-06T19:22:13.787Z,100703.98
2019-05-06T19:24:42.343Z,100698.31
2019-05-06T19:27:12.731Z,100711.90
2019-05-06T19:29:43.288Z,100710.88
2019-05-06T19:32:12.277Z,100712.06
2019-05-06T19:34:42.270Z,100712.30
2019-05-06T19:37:11.229Z,100722.09
2019-05-06T19:39:39.914Z,100717.88
2019-05-06T19:42:08.602Z,100722.91
2019-05-06T19:44:37.377Z,100719.70
2019-05-06T19:47:06.041Z,100722.67
2019-05-06T19:49:34.706Z,100721.29
2019-05-06T19:52:03.399Z,100720.17
2019-05-06T19:54:33.012Z,100728.59
2019-05-06T19:57:02.554Z,100724.13
2019-05-06T19:59:33.063Z,100733.48
2019-05-06T20:02:01.982Z,100727.59
2019-05-06T20:04:33.259Z,100725.75
2019-05-06T20:07:32.671Z,100723.56
2019-05-06T20:10:22.952Z,100729.36
2019-05-06T20:13:04.516Z,100725.02
2019-05-06T20:15:52.727Z,100719.92
2019-05-06T20:18:21.421Z,100725.14
2019-05-06T20:20:50.105Z,100721.48
2019-05-06T20:23:18.773Z,100719.29
2019-05-06T20:25:47.469Z,100719.55
2019-05-06T20:28:16.133Z,100720.16
2019-05-06T20:30:44.802Z,100721.86
2019-05-06T20:33:13.704Z,100720.67
2019-05-06T20:35:43.210Z,100720.86
2019-05-06T20:38:12.450Z,100710.23
2019-05-06T20:40:43.110Z,100713.00
2019-05-06T20:43:19.314Z,100710.79
2019-05-06T20:45:42.858Z,100700.41
2019-05-06T20:48:12.877Z,100709.86
2019-05-06T20:50:42.916Z,100700.11
2019-05-06T20:53:12.207Z,100691.48
2019-05-06T20:55:43.252Z,100695.03
2019-05-06T20:58:12.214Z,100693.45
2019-05-06T21:00:43.016Z,100697.58
2019-05-06T21:03:12.367Z,100697.58
2019-05-06T21:05:43.503Z,100696.58
2019-05-06T21:08:13.018Z,100699.97
2019-05-06T21:10:42.675Z,100697.91
2019-05-06T21:13:13.312Z,100698.03
2019-05-06T21:15:43.258Z,100699.87
2019-05-06T21:18:12.331Z,100700.80
2019-05-06T21:20:43.333Z,100701.80
2019-05-06T21:23:11.520Z,100702.13
2019-05-06T21:25:40.203Z,100703.25
2019-05-06T21:28:08.862Z,100699.22
2019-05-06T21:30:37.554Z,100698.22
2019-05-06T21:33:06.213Z,100697.55
2019-05-06T21:35:35.001Z,100696.22
2019-05-06T21:38:03.767Z,100699.73
2019-05-06T21:40:32.554Z,100696.22
2019-05-06T21:43:02.055Z,100702.69
2019-05-06T21:45:33.095Z,100698.34
2019-05-06T21:48:02.789Z,100705.94
2019-05-06T21:50:33.107Z,100697.09
2019-05-06T21:53:02.698Z,100695.83
2019-05-06T21:55:32.321Z,100687.84
2019-05-06T21:58:02.216Z,100704.20
2019-05-06T22:00:49.519Z,100696.47
2019-05-06T22:03:18.581Z,100694.13
2019-05-06T22:05:47.322Z,100689.34
2019-05-06T22:08:16.360Z,100694.36
2019-05-06T22:10:45.025Z,100691.19
2019-05-06T22:13:14.660Z,100696.51
2019-05-06T22:15:43.439Z,100693.87
2019-05-06T22:18:12.615Z,100703.00
2019-05-06T22:20:59.352Z,100696.20
2019-05-06T22:23:47.406Z,100704.59
2019-05-06T22:26:16.473Z,100691.48
2019-05-06T22:28:45.159Z,100685.78
2019-05-06T22:31:14.178Z,100687.35
2019-05-06T22:33:42.994Z,100691.59
2019-05-06T22:36:13.225Z,100700.74
2019-05-06T22:38:44.166Z,100696.52
2019-05-06T22:41:12.535Z,100687.47
2019-05-06T22:43:42.380Z,100689.77
2019-05-06T22:46:12.352Z,100687.31
2019-05-06T22:48:43.324Z,100686.18
2019-05-06T22:51:12.351Z,100687.06
2019-05-06T22:53:42.472Z,100685.00
2019-05-06T22:56:14.041Z,100691.08
2019-05-06T22:58:42.920Z,100688.02
2019-05-06T23:01:32.653Z,100694.48
2019-05-06T23:04:02.110Z,100692.84
2019-05-06T23:06:32.995Z,100695.58
2019-05-06T23:09:02.504Z,100696.90
2019-05-06T23:11:32.857Z,100696.84
2019-05-06T23:14:02.753Z,100698.36
2019-05-06T23:16:32.848Z,100698.92
2019-05-06T23:19:02.225Z,100703.50
2019-05-06T23:21:33.501Z,100703.17
2019-05-06T23:24:02.178Z,100697.73
2019-05-06T23:26:30.960Z,100703.60
2019-05-06T23:28:59.631Z,100696.95
2019-05-06T23:31:28.375Z,100702.17
2019-05-06T23:33:57.156Z,100707.00
2019-05-06T23:36:28.707Z,100705.63
2019-05-06T23:39:34.246Z,100709.16
2019-05-06T23:42:39.461Z,100708.27
2019-05-06T23:45:44.246Z,100706.89
2019-05-06T23:48:49.081Z,100704.41
2019-05-06T23:51:54.090Z,100700.34
2019-05-06T23:54:59.080Z,100701.83
2019-05-06T23:57:26.409Z,100701.92
2019-05-06T23:59:55.085Z,100707.30
